Terminal Aerodrome Forecast
Issued by NWS

Current Version | Previous Version | Text Only | Print | Product List | Glossary On
Versions: 1 2 3 4 5 6 7 8 9 10 11 12 13 14 15 16 17 18 19 20
000
FTUS41 KGYX 261124
TAFPSM
TAF
KPSM 261124Z 2612/2712 31005KT P6SM OVC100
     FM261600 02009KT 6SM -RASN OVC030
     FM261900 02012G22KT 1/2SM SNRA FG OVC005
     FM262300 01017G27KT 1/2SM SN FG OVC004
     FM270300 36015G22KT 2SM -SN BR OVC006
     FM270800 32012KT P6SM -SHSN BKN025=

USA.gov is the U.S. government's official web portal to all federal, state and local government web resources and services.